createdAt,value
2017-12-22T00:01:15.158Z,79.20
2017-12-22T00:03:47.622Z,79.30
2017-12-22T00:06:27.971Z,79.20
2017-12-22T00:09:01.192Z,79.20
2017-12-22T00:11:32.953Z,79.20
2017-12-22T00:14:05.827Z,79.20
2017-12-22T00:16:39.657Z,78.80
2017-12-22T00:19:18.850Z,79.10
2017-12-22T00:21:53.446Z,79.10
2017-12-22T00:24:25.898Z,79.20
2017-12-22T00:26:59.755Z,78.90
2017-12-22T00:29:33.991Z,79.10
2017-12-22T00:32:09.363Z,79.10
2017-12-22T00:34:44.541Z,78.80
2017-12-22T00:37:20.063Z,78.80
2017-12-22T00:39:53.561Z,78.80
2017-12-22T00:42:26.925Z,79.30
2017-12-22T00:44:59.108Z,79.30
2017-12-22T00:47:36.677Z,79.20
2017-12-22T00:50:13.123Z,79.30
2017-12-22T00:52:45.021Z,79.20
2017-12-22T00:55:21.246Z,79.10
2017-12-22T00:57:53.634Z,78.70
2017-12-22T01:00:30.412Z,78.80
2017-12-22T01:03:05.654Z,78.90
2017-12-22T01:05:40.988Z,78.90
2017-12-22T01:08:14.197Z,78.80
2017-12-22T01:10:46.590Z,79.10
2017-12-22T01:13:22.370Z,79.20
2017-12-22T01:15:59.414Z,79.20
2017-12-22T01:19:36.622Z,79.10
2017-12-22T01:22:09.078Z,79.50
2017-12-22T01:24:42.917Z,79.50
2017-12-22T01:27:16.699Z,79.20
2017-12-22T01:29:49.715Z,79.30
2017-12-22T01:32:26.108Z,79.30
2017-12-22T01:34:59.118Z,79.20
2017-12-22T01:37:32.265Z,79.20
2017-12-22T01:40:07.574Z,79.30
2017-12-22T01:42:42.213Z,79.40
2017-12-22T01:45:17.664Z,79.40
2017-12-22T01:47:51.847Z,79.10
2017-12-22T01:50:27.659Z,79.10
2017-12-22T01:53:02.339Z,79.00
2017-12-22T01:55:36.304Z,79.50
2017-12-22T01:58:11.535Z,79.50
2017-12-22T02:00:43.339Z,79.50
2017-12-22T02:03:18.049Z,79.20
2017-12-22T02:05:52.050Z,79.10
2017-12-22T02:08:27.547Z,79.10
2017-12-22T02:11:00.796Z,79.50
2017-12-22T02:13:34.833Z,79.50
2017-12-22T02:16:07.005Z,79.40
2017-12-22T02:18:43.059Z,79.60
2017-12-22T02:21:15.636Z,79.60
2017-12-22T02:23:49.566Z,79.50
2017-12-22T02:26:24.774Z,79.40
2017-12-22T02:29:00.071Z,79.50
2017-12-22T02:31:33.076Z,79.40
2017-12-22T02:34:06.765Z,79.50
2017-12-22T02:36:41.110Z,79.20
2017-12-22T02:39:12.900Z,79.60
2017-12-22T02:41:46.774Z,79.90
2017-12-22T02:44:19.972Z,80.00
2017-12-22T02:46:53.945Z,80.00
2017-12-22T02:49:28.367Z,80.70
2017-12-22T02:52:04.143Z,81.80
2017-12-22T02:54:35.613Z,80.50
2017-12-22T02:57:09.156Z,81.30
2017-12-22T02:59:42.087Z,81.10
2017-12-22T03:02:14.553Z,81.20
2017-12-22T03:04:46.622Z,81.20
2017-12-22T03:07:18.634Z,81.00
2017-12-22T03:09:51.318Z,80.40
2017-12-22T03:12:25.474Z,80.80
2017-12-22T03:14:58.664Z,80.90
2017-12-22T03:17:32.208Z,80.70
2017-12-22T03:20:05.904Z,80.80
2017-12-22T03:22:39.906Z,80.50
2017-12-22T03:25:12.712Z,80.50
2017-12-22T03:27:45.179Z,80.50
2017-12-22T03:30:19.435Z,80.50
2017-12-22T03:32:51.986Z,80.50
2017-12-22T03:35:26.404Z,80.60
2017-12-22T03:38:00.990Z,80.60
2017-12-22T03:40:33.857Z,80.60
2017-12-22T03:43:08.698Z,80.70
2017-12-22T03:45:43.952Z,80.80
2017-12-22T03:48:19.224Z,80.70
2017-12-22T03:50:53.100Z,80.50
2017-12-22T03:53:27.343Z,80.50
2017-12-22T03:56:00.896Z,80.60
2017-12-22T03:58:34.618Z,80.70
2017-12-22T04:01:07.374Z,80.70
2017-12-22T04:03:40.663Z,80.70
2017-12-22T04:06:16.310Z,80.70
2017-12-22T04:08:53.878Z,80.20
2017-12-22T04:11:29.225Z,80.30
2017-12-22T04:14:05.031Z,80.30
2017-12-22T04:16:42.011Z,80.50
2017-12-22T04:19:20.440Z,80.40
2017-12-22T04:21:57.262Z,80.50
2017-12-22T04:24:30.713Z,80.50
2017-12-22T04:27:04.618Z,80.60
2017-12-22T04:29:37.955Z,80.40
2017-12-22T04:32:11.254Z,80.50
2017-12-22T04:34:44.380Z,80.50
2017-12-22T04:37:17.411Z,80.70
2017-12-22T04:39:52.445Z,80.50
2017-12-22T04:42:24.070Z,80.50
2017-12-22T04:44:55.923Z,80.30
2017-12-22T04:47:29.253Z,80.70
2017-12-22T04:50:02.843Z,80.80
2017-12-22T04:52:35.712Z,81.50
2017-12-22T04:55:09.050Z,80.90
2017-12-22T04:57:42.869Z,80.90
2017-12-22T05:00:15.471Z,80.90
2017-12-22T05:02:50.176Z,81.20
2017-12-22T05:05:23.645Z,81.50
2017-12-22T05:07:56.207Z,81.10
2017-12-22T05:10:28.499Z,81.20
2017-12-22T05:13:06.938Z,81.30
2017-12-22T05:15:43.463Z,81.20
2017-12-22T05:18:15.787Z,81.60
2017-12-22T05:20:49.430Z,81.40
2017-12-22T05:23:24.054Z,81.60
2017-12-22T05:25:59.286Z,81.60
2017-12-22T05:28:31.549Z,81.60
2017-12-22T05:31:05.642Z,81.10
2017-12-22T05:33:38.334Z,81.20
2017-12-22T05:36:15.330Z,81.30
2017-12-22T05:38:49.953Z,81.30
2017-12-22T05:41:22.367Z,81.40
2017-12-22T05:43:54.077Z,81.20
2017-12-22T05:46:28.290Z,81.60
2017-12-22T05:49:01.127Z,81.40
2017-12-22T05:51:33.854Z,81.50
2017-12-22T05:54:06.179Z,81.40
2017-12-22T05:56:43.810Z,81.30
2017-12-22T05:59:16.934Z,81.40
2017-12-22T06:01:52.055Z,81.70
2017-12-22T06:04:25.690Z,81.60
2017-12-22T06:06:59.208Z,81.30
2017-12-22T06:09:33.730Z,81.20
2017-12-22T06:12:10.567Z,81.50
2017-12-22T06:14:44.594Z,81.30
2017-12-22T06:17:19.276Z,81.70
2017-12-22T06:19:51.342Z,81.80
2017-12-22T06:22:25.664Z,81.40
2017-12-22T06:25:00.303Z,81.40
2017-12-22T06:27:32.534Z,81.30
2017-12-22T06:30:07.919Z,81.00
2017-12-22T06:32:41.798Z,82.10
2017-12-22T06:35:17.969Z,82.40
2017-12-22T06:38:03.070Z,82.40
2017-12-22T06:40:36.869Z,82.20
2017-12-22T06:43:09.827Z,82.10
2017-12-22T06:45:48.390Z,82.40
2017-12-22T06:48:20.818Z,82.10
2017-12-22T06:51:01.484Z,82.10
2017-12-22T06:53:36.604Z,81.90
2017-12-22T06:56:10.331Z,81.60
2017-12-22T06:58:44.024Z,81.70
2017-12-22T07:01:17.404Z,81.70
2017-12-22T07:03:53.199Z,81.70
2017-12-22T07:06:26.943Z,81.70
2017-12-22T07:09:06.383Z,81.80
2017-12-22T07:11:39.824Z,82.50
2017-12-22T07:14:18.053Z,83.00
2017-12-22T07:16:53.982Z,83.80
2017-12-22T07:19:26.827Z,83.60
2017-12-22T07:22:12.133Z,83.90
2017-12-22T07:24:47.932Z,83.90
2017-12-22T07:27:22.252Z,83.80
2017-12-22T07:29:59.472Z,83.80
2017-12-22T07:32:35.476Z,83.70
2017-12-22T07:35:12.540Z,83.50
2017-12-22T07:37:46.745Z,82.80
2017-12-22T07:40:21.540Z,83.30
2017-12-22T07:42:58.863Z,82.80
2017-12-22T07:45:36.325Z,83.20
2017-12-22T07:48:11.722Z,85.10
2017-12-22T07:50:50.135Z,83.40
2017-12-22T07:53:31.284Z,83.10
2017-12-22T07:56:08.995Z,83.00
2017-12-22T07:58:46.710Z,83.10
2017-12-22T08:01:20.579Z,82.60
2017-12-22T08:03:57.466Z,83.00
2017-12-22T08:06:33.527Z,82.50
2017-12-22T08:09:07.008Z,82.60
2017-12-22T08:11:43.430Z,82.60
2017-12-22T08:14:33.713Z,82.60
2017-12-22T08:17:08.079Z,82.60
2017-12-22T08:19:44.864Z,82.40
2017-12-22T08:22:18.739Z,82.70
2017-12-22T08:25:09.032Z,82.60
2017-12-22T08:27:46.726Z,82.50
2017-12-22T08:30:24.835Z,82.10
2017-12-22T08:32:59.292Z,82.20
2017-12-22T08:35:38.342Z,82.20
2017-12-22T08:38:10.589Z,82.20
2017-12-22T08:40:43.888Z,82.00
2017-12-22T08:43:19.998Z,82.10
2017-12-22T08:45:55.514Z,82.20
2017-12-22T08:49:00.311Z,81.50
2017-12-22T08:51:36.298Z,82.30
2017-12-22T08:54:08.615Z,82.40
2017-12-22T08:56:41.491Z,82.90
2017-12-22T08:59:15.443Z,82.80
2017-12-22T09:01:49.351Z,82.50
2017-12-22T09:04:26.394Z,82.90
2017-12-22T09:06:59.044Z,83.10
2017-12-22T09:09:33.858Z,83.10
2017-12-22T09:12:06.991Z,84.60
2017-12-22T09:14:40.182Z,83.20
2017-12-22T09:17:14.510Z,83.30
2017-12-22T09:19:52.014Z,83.20
2017-12-22T09:22:31.706Z,82.80
2017-12-22T09:25:18.673Z,82.80
2017-12-22T09:28:00.937Z,82.80
2017-12-22T09:30:43.171Z,82.80
2017-12-22T09:33:19.110Z,82.10
2017-12-22T09:35:56.256Z,82.10
2017-12-22T09:38:28.698Z,81.20
2017-12-22T09:41:04.392Z,81.20
2017-12-22T09:43:38.443Z,81.50
2017-12-22T09:46:15.080Z,81.30
2017-12-22T09:48:50.695Z,81.30
2017-12-22T09:51:25.968Z,80.50
2017-12-22T09:54:01.143Z,80.20
2017-12-22T09:59:24.060Z,80.60
2017-12-22T10:01:57.922Z,80.10
2017-12-22T10:04:34.998Z,81.00
2017-12-22T10:07:16.545Z,82.20
2017-12-22T10:09:53.774Z,82.10
2017-12-22T10:12:27.357Z,83.00
2017-12-22T10:15:14.357Z,83.00
2017-12-22T10:17:51.444Z,82.80
2017-12-22T10:20:28.202Z,82.90
2017-12-22T10:23:05.403Z,81.90
2017-12-22T10:25:46.114Z,82.00
2017-12-22T10:28:25.941Z,82.10
2017-12-22T10:31:02.143Z,82.10
2017-12-22T10:33:39.406Z,82.10
2017-12-22T10:36:16.884Z,83.20
2017-12-22T10:38:52.762Z,82.40
2017-12-22T10:41:30.858Z,82.40
2017-12-22T10:44:05.602Z,82.90
2017-12-22T10:46:40.995Z,82.50
2017-12-22T10:49:19.804Z,82.80
2017-12-22T10:52:00.381Z,83.40
2017-12-22T10:54:36.695Z,83.90
2017-12-22T10:57:37.116Z,84.90
2017-12-22T11:00:12.807Z,85.50
2017-12-22T11:02:57.806Z,84.90
2017-12-22T11:05:33.218Z,84.40
2017-12-22T11:08:06.174Z,82.20
2017-12-22T11:10:41.595Z,83.70
2017-12-22T11:13:14.250Z,82.20
2017-12-22T11:15:50.713Z,82.00
2017-12-22T11:18:27.465Z,81.90
2017-12-22T11:21:03.160Z,82.70
2017-12-22T11:23:41.199Z,81.60
2017-12-22T11:26:16.638Z,81.60
2017-12-22T11:32:16.873Z,81.70
2017-12-22T11:37:44.374Z,80.70
2017-12-22T11:43:00.808Z,80.50
2017-12-22T11:45:40.103Z,80.30
2017-12-22T11:48:16.375Z,80.20
2017-12-22T11:50:51.730Z,79.90
2017-12-22T11:53:26.328Z,79.90
2017-12-22T11:56:02.796Z,79.90
2017-12-22T11:58:41.670Z,79.00
2017-12-22T12:01:18.125Z,80.10
2017-12-22T12:03:51.644Z,80.10
2017-12-22T12:06:25.593Z,79.80
2017-12-22T12:08:58.783Z,81.00
2017-12-22T12:11:31.091Z,80.90
2017-12-22T12:14:04.310Z,81.20
2017-12-22T12:16:41.708Z,81.90
2017-12-22T12:19:21.879Z,81.90
2017-12-22T12:21:58.230Z,82.80
2017-12-22T12:24:33.491Z,82.10
2017-12-22T12:27:11.760Z,81.80
2017-12-22T12:29:47.935Z,82.10
2017-12-22T12:32:22.991Z,82.50
2017-12-22T12:34:59.027Z,83.30
2017-12-22T12:37:33.567Z,83.60
2017-12-22T12:40:13.695Z,82.40
2017-12-22T12:42:49.567Z,84.10
2017-12-22T12:45:27.292Z,83.30
2017-12-22T12:48:01.280Z,85.40
2017-12-22T12:50:34.663Z,83.40
2017-12-22T12:53:11.668Z,83.40
2017-12-22T12:55:45.797Z,83.40
2017-12-22T12:58:19.055Z,83.50
2017-12-22T13:00:52.122Z,84.10
2017-12-22T13:03:25.729Z,81.50
2017-12-22T13:05:59.139Z,82.40
2017-12-22T13:08:33.935Z,82.30
2017-12-22T13:11:10.404Z,82.00
2017-12-22T13:13:42.781Z,81.80
2017-12-22T13:16:19.182Z,81.50
2017-12-22T13:18:53.082Z,81.50
2017-12-22T13:21:26.720Z,82.50
2017-12-22T13:24:16.478Z,80.80
2017-12-22T13:27:02.855Z,80.60
2017-12-22T13:29:36.964Z,80.40
2017-12-22T13:32:11.625Z,80.00
2017-12-22T13:34:46.719Z,80.30
2017-12-22T13:37:30.299Z,80.10
2017-12-22T13:40:04.135Z,80.10
2017-12-22T13:42:35.669Z,79.40
2017-12-22T13:45:10.634Z,81.30
2017-12-22T13:47:45.563Z,80.30
2017-12-22T13:50:21.307Z,80.70
2017-12-22T13:52:55.244Z,81.70
2017-12-22T13:55:27.754Z,81.70
2017-12-22T13:58:02.993Z,81.70
2017-12-22T14:01:07.575Z,81.80
2017-12-22T14:03:40.667Z,81.10
2017-12-22T14:06:12.907Z,81.50
2017-12-22T14:08:46.778Z,81.80
2017-12-22T14:11:20.940Z,82.10
2017-12-22T14:13:54.427Z,81.20
2017-12-22T14:16:28.844Z,81.70
2017-12-22T14:19:06.970Z,81.60
2017-12-22T14:21:41.839Z,81.60
2017-12-22T14:24:14.052Z,81.70
2017-12-22T14:26:51.709Z,82.30
2017-12-22T14:29:24.320Z,82.40
2017-12-22T14:31:57.968Z,82.60
2017-12-22T14:34:30.707Z,82.50
2017-12-22T14:37:07.309Z,82.60
2017-12-22T14:39:40.226Z,83.10
2017-12-22T14:42:19.451Z,81.00
2017-12-22T14:44:53.513Z,81.10
2017-12-22T14:47:30.742Z,82.30
2017-12-22T14:50:03.695Z,82.20
2017-12-22T14:52:36.617Z,83.20
2017-12-22T14:55:11.500Z,82.70
2017-12-22T14:57:45.837Z,82.70
2017-12-22T15:00:19.271Z,83.20
2017-12-22T15:02:51.912Z,83.90
2017-12-22T15:05:24.979Z,84.00
2017-12-22T15:08:01.087Z,83.60
2017-12-22T15:10:34.352Z,84.20
2017-12-22T15:13:09.209Z,83.90
2017-12-22T15:15:43.587Z,84.30
2017-12-22T15:18:15.632Z,84.10
2017-12-22T15:20:50.157Z,84.40
2017-12-22T15:23:24.224Z,84.40
2017-12-22T15:25:56.538Z,84.20
2017-12-22T15:28:30.866Z,84.70
2017-12-22T15:31:06.817Z,85.20
2017-12-22T15:33:42.454Z,85.70
2017-12-22T15:36:16.193Z,85.10
2017-12-22T15:38:53.222Z,84.90
2017-12-22T15:41:29.355Z,84.70
2017-12-22T15:44:03.579Z,85.20
2017-12-22T15:46:36.028Z,84.70
2017-12-22T15:49:10.999Z,85.70
2017-12-22T15:51:45.671Z,85.20
2017-12-22T15:54:19.155Z,85.10
2017-12-22T15:56:56.543Z,85.10
2017-12-22T15:59:31.790Z,85.60
2017-12-22T16:02:04.747Z,85.60
2017-12-22T16:04:38.286Z,85.70
2017-12-22T16:07:12.770Z,85.60
2017-12-22T16:09:47.687Z,85.30
2017-12-22T16:12:22.291Z,85.30
2017-12-22T16:14:55.144Z,85.10
2017-12-22T16:17:26.715Z,85.50
2017-12-22T16:19:59.209Z,86.10
2017-12-22T16:22:35.876Z,86.10
2017-12-22T16:25:09.114Z,85.50
2017-12-22T16:27:43.064Z,85.30
2017-12-22T16:30:17.341Z,85.60
2017-12-22T16:32:54.491Z,85.70
2017-12-22T16:35:38.567Z,85.40
2017-12-22T16:38:15.263Z,86.20
2017-12-22T16:40:49.855Z,86.20
2017-12-22T16:43:21.842Z,86.60
2017-12-22T16:45:54.200Z,86.80
2017-12-22T16:48:27.555Z,86.70
2017-12-22T16:51:00.891Z,86.70
2017-12-22T16:53:38.600Z,87.00
2017-12-22T16:56:12.995Z,87.00
2017-12-22T16:58:51.435Z,87.20
2017-12-22T17:01:36.680Z,86.80
2017-12-22T17:04:11.133Z,86.30
2017-12-22T17:06:48.225Z,87.10
2017-12-22T17:09:24.496Z,87.30
2017-12-22T17:11:58.283Z,87.10
2017-12-22T17:14:31.133Z,87.10
2017-12-22T17:17:03.660Z,86.80
2017-12-22T17:19:38.463Z,87.40
2017-12-22T17:22:14.555Z,87.30
2017-12-22T17:24:51.439Z,87.50
2017-12-22T17:27:25.467Z,87.50
2017-12-22T17:29:58.026Z,87.50
2017-12-22T17:32:31.075Z,88.80
2017-12-22T17:35:04.485Z,89.40
2017-12-22T17:37:38.189Z,89.10
2017-12-22T17:40:14.135Z,89.60
2017-12-22T17:42:46.703Z,89.50
2017-12-22T17:45:19.402Z,88.70
2017-12-22T17:47:54.199Z,89.20
2017-12-22T17:50:27.372Z,87.70
2017-12-22T17:53:03.141Z,87.60
2017-12-22T17:55:38.439Z,87.50
2017-12-22T17:58:14.795Z,87.60
2017-12-22T18:00:51.033Z,88.30
2017-12-22T18:03:22.866Z,89.10
2017-12-22T18:05:55.341Z,89.00
2017-12-22T18:08:28.982Z,89.70
2017-12-22T18:11:02.147Z,88.70
2017-12-22T18:13:35.964Z,89.40
2017-12-22T18:16:10.316Z,88.40
2017-12-22T18:18:44.440Z,88.70
2017-12-22T18:21:18.063Z,89.10
2017-12-22T18:23:50.685Z,89.00
2017-12-22T18:26:31.699Z,88.80
2017-12-22T18:29:07.225Z,87.40
2017-12-22T18:31:40.355Z,87.40
2017-12-22T18:34:12.279Z,87.10
2017-12-22T18:36:45.325Z,87.80
2017-12-22T18:39:16.458Z,87.00
2017-12-22T18:41:48.544Z,86.60
2017-12-22T18:44:20.138Z,86.50
2017-12-22T18:46:51.386Z,86.40
2017-12-22T18:49:25.126Z,86.10
2017-12-22T18:51:57.768Z,86.30
2017-12-22T18:54:30.002Z,85.80
2017-12-22T18:57:07.462Z,85.30
2017-12-22T18:59:42.071Z,85.30
2017-12-22T19:02:18.153Z,85.00
2017-12-22T19:04:54.483Z,85.70
2017-12-22T19:07:29.709Z,84.30
2017-12-22T19:10:04.434Z,84.30
2017-12-22T19:12:38.099Z,85.80
2017-12-22T19:15:12.735Z,84.60
2017-12-22T19:17:47.322Z,84.40
2017-12-22T19:20:21.617Z,84.90
2017-12-22T19:22:55.122Z,84.90
2017-12-22T19:25:27.362Z,84.60
2017-12-22T19:27:59.675Z,84.60
2017-12-22T19:30:35.037Z,84.10
2017-12-22T19:33:08.149Z,84.20
2017-12-22T19:35:43.619Z,83.90
2017-12-22T19:38:18.400Z,84.20
